Terminal Aerodrome Forecast
Issued by NWS Wilmington, OH

Current Version | Previous Version | Graphics & Text | Print | Product List | Glossary On
Versions: 1 2 3 4 5 6 7 8 9 10 11 12 13 14 15 16 17 18 19 20
000
FTUS41 KILN 030813 AAC
TAFILN
TAF AMD
KILN 030813Z 0308/0406 20006KT P6SM BKN100
     FM030845 21012KT P6SM VCTS BKN040CB
      TEMPO 0309/0311 2SM TSRA BKN025CB
     FM031300 24012G18KT P6SM BKN050
     FM031900 27014G22KT P6SM VCTS BKN050CB
     FM032300 29012G18KT P6SM BKN050
     FM040200 32008KT P6SM SCT050=

USA.gov is the U.S. government's official web portal to all federal, state and local government web resources and services.